Time;durP1;ratioP1;P1;durP2;ratioP2;P2;SDS_P1;SDS_P2;PMS_P1;PMS_P2;Temp;Humidity;BMP_temperature;BMP_pressure;BME280_temperature;BME280_humidity;BME280_pressure;Samples;Min_cycle;Max_cycle;Signal;HPM_P1;HPM_P2
2021/12/27 00:01:45;;;;;;;6.95;2.22;;;;;;;-9.66;100.00;99273.84;5005377;28;20163;-63
2021/12/27 00:04:30;;;;;;;4.53;2.35;;;;;;;-9.67;100.00;99282.31;5026329;28;20049;-63
2021/12/27 00:07:15;;;;;;;6.20;2.60;;;;;;;-9.63;100.00;99290.25;5024742;28;20067;-64
2021/12/27 00:10:00;;;;;;;;;;;;;;;-9.66;100.00;99284.09;4994593;28;20161;-68
2021/12/27 00:12:45;;;;;;;4.53;2.30;;;;;;;-9.78;100.00;99289.47;5024112;28;19927;-62
2021/12/27 00:15:31;;;;;;;5.78;2.28;;;;;;;-9.78;100.00;99292.03;5009878;28;20052;-63
2021/12/27 00:18:19;;;;;;;6.35;2.65;;;;;;;-9.84;100.00;99299.44;5012025;28;20040;-63
2021/12/27 00:21:04;;;;;;;10.90;2.38;;;;;;;-9.88;100.00;99300.09;5007271;28;20137;-61
2021/12/27 00:23:49;;;;;;;5.05;2.50;;;;;;;-9.89;100.00;99313.72;4978910;28;20065;-66
2021/12/27 00:26:35;;;;;;;4.20;2.28;;;;;;;-9.94;100.00;99312.56;5010592;28;20123;-61
2021/12/27 00:29:20;;;;;;;5.13;2.53;;;;;;;-9.76;100.00;99318.66;5023698;28;20122;-65
2021/12/27 00:32:05;;;;;;;4.97;2.28;;;;;;;-9.79;100.00;99310.81;4997479;28;20095;-62
2021/12/27 00:34:50;;;;;;;4.57;2.47;;;;;;;-9.94;100.00;99304.03;4997813;28;20132;-63
2021/12/27 00:37:35;;;;;;;6.53;2.60;;;;;;;-9.88;100.00;99324.81;5006294;28;20633;-62
2021/12/27 00:40:20;;;;;;;;;;;;;;;-9.93;100.00;99324.63;5016806;28;20056;-66
2021/12/27 00:43:04;;;;;;;7.15;2.30;;;;;;;-9.98;100.00;99302.97;5011167;28;19949;-63
2021/12/27 00:45:49;;;;;;;3.97;2.33;;;;;;;-9.89;100.00;99335.91;5026106;28;20044;-62
2021/12/27 00:48:34;;;;;;;4.45;2.30;;;;;;;-9.86;100.00;99320.69;5024013;28;20061;-61
2021/12/27 00:51:20;;;;;;;4.55;2.17;;;;;;;-9.98;100.00;99314.91;5026004;28;20797;-61
2021/12/27 00:54:05;;;;;;;7.25;2.67;;;;;;;-9.88;100.00;99341.09;5025536;28;20992;-57
2021/12/27 00:56:49;;;;;;;4.78;1.98;;;;;;;-9.86;100.00;99339.50;5015242;28;20524;-59
2021/12/27 00:59:34;;;;;;;8.57;3.25;;;;;;;-9.90;100.00;99346.97;4988722;28;20075;-58
2021/12/27 01:02:18;;;;;;;3.97;2.00;;;;;;;-9.98;100.00;99345.69;5011345;28;20045;-60
2021/12/27 01:05:06;;;;;;;10.77;3.03;;;;;;;-9.96;100.00;99347.50;5024955;28;20092;-62
2021/12/27 01:07:54;;;;;;;4.38;2.38;;;;;;;-9.93;100.00;99350.25;5021431;28;20072;-62
2021/12/27 01:11:25;;;;;;;5.07;2.47;;;;;;;-9.82;100.00;99364.47;4993289;28;20076;-62
2021/12/27 01:14:01;;;;;;;6.88;2.72;;;;;;;-9.75;100.00;99357.97;4998932;28;20045;-55
2021/12/27 01:16:46;;;;;;;5.70;2.95;;;;;;;-9.73;100.00;99376.91;4996962;28;20049;-59
2021/12/27 01:19:31;;;;;;;6.72;2.60;;;;;;;-9.69;100.00;99379.72;5025776;28;20436;-60
2021/12/27 01:22:17;;;;;;;6.32;2.50;;;;;;;-9.72;100.00;99376.09;5028627;28;20060;-61
2021/12/27 01:25:06;;;;;;;5.85;2.88;;;;;;;-9.68;100.00;99378.03;5012143;28;20049;-60
2021/12/27 01:27:52;;;;;;;5.97;2.90;;;;;;;-9.56;100.00;99384.69;5026353;28;20064;-60
2021/12/27 01:30:46;;;;;;;4.93;2.58;;;;;;;-9.60;100.00;99385.31;5014250;28;20048;-62
2021/12/27 01:33:32;;;;;;;5.57;2.50;;;;;;;-9.59;100.00;99391.34;5009109;28;20183;-62
2021/12/27 01:36:18;;;;;;;7.20;2.70;;;;;;;-9.66;100.00;99391.81;5005720;28;20088;-60
2021/12/27 01:39:07;;;;;;;6.18;2.67;;;;;;;-9.63;100.00;99403.09;5023917;28;20067;-64
2021/12/27 01:41:52;;;;;;;9.13;3.53;;;;;;;-9.60;100.00;99398.16;5024373;28;20532;-63
2021/12/27 01:44:38;;;;;;;7.07;2.92;;;;;;;-9.67;100.00;99413.13;4996893;28;20052;-59
2021/12/27 01:47:24;;;;;;;5.50;2.28;;;;;;;-9.64;100.00;99393.66;5009072;28;20091;-61
2021/12/27 01:50:09;;;;;;;;;;;;;;;-9.52;100.00;99404.56;5011563;28;20088;-59
2021/12/27 01:52:54;;;;;;;6.72;2.70;;;;;;;-9.48;100.00;99409.03;5028507;28;20090;-58
2021/12/27 01:55:38;;;;;;;;;;;;;;;-9.51;100.00;99408.88;5014878;28;20548;-57
2021/12/27 01:58:24;;;;;;;5.18;2.22;;;;;;;-9.62;100.00;99404.00;5011901;28;19992;-58
2021/12/27 02:01:11;;;;;;;4.40;2.03;;;;;;;-9.55;100.00;99408.66;4996579;28;20091;-62
2021/12/27 02:03:57;;;;;;;4.90;2.78;;;;;;;-9.49;100.00;99408.97;4998501;28;20048;-61
2021/12/27 02:06:41;;;;;;;5.20;2.10;;;;;;;-9.52;100.00;99411.34;5009830;28;20091;-61
2021/12/27 02:09:37;;;;;;;5.97;2.60;;;;;;;-9.43;100.00;99427.25;5014377;28;20064;-62
2021/12/27 02:12:21;;;;;;;7.47;2.78;;;;;;;-9.35;100.00;99423.41;5013241;28;20436;-62
2021/12/27 02:15:09;;;;;;;8.23;3.63;;;;;;;-9.42;100.00;99426.44;5027110;28;20052;-59
2021/12/27 02:17:55;;;;;;;8.88;3.40;;;;;;;-9.51;100.00;99423.41;4998531;28;20421;-54
2021/12/27 02:20:42;;;;;;;7.32;2.63;;;;;;;-9.58;100.00;99408.50;4999011;28;20056;-58
2021/12/27 02:23:27;;;;;;;5.90;2.85;;;;;;;-9.49;100.00;99437.19;5027341;28;20118;-62
2021/12/27 02:26:12;;;;;;;;;;;;;;;-9.38;100.00;99431.78;5028771;28;20072;-57
2021/12/27 02:28:57;;;;;;;3.17;2.20;;;;;;;-9.47;100.00;99410.78;4997515;28;20438;-65
2021/12/27 02:31:43;;;;;;;5.13;2.33;;;;;;;-9.28;100.00;99441.75;4999068;28;20472;-59
2021/12/27 02:34:31;;;;;;;5.93;2.30;;;;;;;-9.47;100.00;99441.56;5011875;28;20148;-60
2021/12/27 02:37:15;;;;;;;5.70;2.67;;;;;;;-9.50;100.00;99438.84;5028667;28;20061;-60
2021/12/27 02:40:00;;;;;;;6.28;2.35;;;;;;;-9.41;100.00;99465.00;5011870;28;20131;-61
2021/12/27 02:42:55;;;;;;;;;;;;;;;-9.31;100.00;99474.06;5028201;28;20567;-58
2021/12/27 02:45:57;;;;;;;6.10;2.65;;;;;;;-9.50;100.00;99454.25;5026885;28;19925;-60
2021/12/27 02:48:46;;;;;;;6.75;2.80;;;;;;;-9.41;100.00;99461.53;5028183;28;20065;-57
2021/12/27 02:51:33;;;;;;;5.25;2.58;;;;;;;-9.39;100.00;99470.22;4991714;28;20512;-61
2021/12/27 02:54:21;;;;;;;8.38;2.70;;;;;;;-9.38;100.00;99477.09;5010554;28;20067;-62
2021/12/27 02:57:05;;;;;;;;;;;;;;;-9.34;100.00;99464.50;5012012;28;20064;-61
2021/12/27 02:59:50;;;;;;;11.80;3.92;;;;;;;-9.40;100.00;99489.84;5012797;28;20008;-59
2021/12/27 03:02:36;;;;;;;10.43;3.65;;;;;;;-9.41;100.00;99475.28;4998685;28;20099;-58
2021/12/27 03:05:24;;;;;;;6.38;3.03;;;;;;;-9.31;100.00;99486.91;5025946;28;20087;-62
2021/12/27 03:08:13;;;;;;;9.02;3.42;;;;;;;-9.38;100.00;99489.94;4998888;28;20052;-58
2021/12/27 03:11:00;;;;;;;6.55;2.70;;;;;;;-9.27;100.00;99493.97;5002241;28;20067;-60
2021/12/27 03:13:51;;;;;;;4.80;2.60;;;;;;;-9.20;100.00;99506.28;4993518;28;20073;-60
2021/12/27 03:16:36;;;;;;;7.45;2.95;;;;;;;-9.28;100.00;99499.88;5001234;28;20060;-59
2021/12/27 03:19:20;;;;;;;7.28;3.17;;;;;;;-9.33;100.00;99514.16;5026339;28;20048;-61
2021/12/27 03:22:04;;;;;;;6.68;2.75;;;;;;;-9.39;100.00;99506.16;5012225;28;20060;-59
2021/12/27 03:24:49;;;;;;;6.30;2.63;;;;;;;-9.31;100.00;99518.56;5026918;28;20172;-65
2021/12/27 03:27:35;;;;;;;5.28;3.05;;;;;;;-9.23;100.00;99512.13;5027184;28;20052;-62
2021/12/27 03:30:26;;;;;;;6.80;2.90;;;;;;;-9.16;100.00;99508.19;5024970;28;20416;-64
2021/12/27 03:33:11;;;;;;;7.38;3.20;;;;;;;-9.15;100.00;99508.28;5024598;28;20784;-63
2021/12/27 03:36:02;;;;;;;5.22;2.92;;;;;;;-9.10;100.00;99513.69;5012293;28;20060;-62
2021/12/27 03:38:52;;;;;;;7.65;3.08;;;;;;;-9.01;100.00;99515.03;4985500;28;20186;-62
2021/12/27 03:41:37;;;;;;;8.73;3.33;;;;;;;-9.00;100.00;99518.47;5024329;28;20087;-64
2021/12/27 03:44:21;;;;;;;8.30;3.38;;;;;;;-8.97;100.00;99524.66;5026863;28;20040;-65
2021/12/27 03:47:05;;;;;;;10.48;4.03;;;;;;;-9.12;100.00;99515.25;5018351;28;20056;-64
2021/12/27 03:49:50;;;;;;;9.20;3.97;;;;;;;-9.22;100.00;99513.03;5010470;28;20068;-64
2021/12/27 03:52:34;;;;;;;8.43;3.50;;;;;;;-9.17;100.00;99526.97;5024751;28;20562;-62
2021/12/27 03:55:19;;;;;;;10.20;4.38;;;;;;;-9.28;100.00;99518.72;5009544;28;20142;-63
2021/12/27 03:58:11;;;;;;;12.00;4.93;;;;;;;-9.15;100.00;99528.81;5010021;28;20091;-61
2021/12/27 04:01:16;;;;;;;8.85;3.60;;;;;;;-9.00;100.00;99531.31;4995232;28;20048;-65
2021/12/27 04:04:00;;;;;;;11.25;4.38;;;;;;;-9.02;100.00;99528.66;5025993;28;20048;-61
2021/12/27 04:06:46;;;;;;;7.93;3.80;;;;;;;-8.96;100.00;99540.94;5011628;28;20104;-61
2021/12/27 04:09:30;;;;;;;10.70;4.10;;;;;;;-8.98;100.00;99524.56;4995288;28;20091;-66
2021/12/27 04:12:14;;;;;;;7.65;3.45;;;;;;;-8.99;100.00;99549.34;5010495;28;20080;-63
2021/12/27 04:14:59;;;;;;;8.05;3.47;;;;;;;-8.89;100.00;99543.91;5003186;28;20056;-62
2021/12/27 04:17:44;;;;;;;5.90;2.78;;;;;;;-8.89;100.00;99543.00;5005465;28;20513;-64
2021/12/27 04:20:28;;;;;;;9.98;3.35;;;;;;;-8.79;100.00;99555.53;5008343;28;20048;-62
2021/12/27 04:23:14;;;;;;;7.22;3.65;;;;;;;-8.84;100.00;99563.00;5027260;28;20048;-64
2021/12/27 04:26:00;;;;;;;8.57;3.47;;;;;;;-8.87;100.00;99562.84;5009394;28;20133;-61
2021/12/27 04:28:46;;;;;;;8.13;3.08;;;;;;;-8.77;100.00;99562.53;5023701;28;20056;-67
2021/12/27 04:31:31;;;;;;;9.93;3.80;;;;;;;-8.73;100.00;99571.25;5010423;28;20090;-65
2021/12/27 04:34:16;;;;;;;;;;;;;;;-8.72;100.00;99570.44;5025925;28;20119;-67
2021/12/27 04:37:01;;;;;;;11.02;5.20;;;;;;;-8.74;100.00;99590.94;4997171;28;20295;-64
2021/12/27 04:39:46;;;;;;;;;;;;;;;-8.69;100.00;99581.78;5011485;28;20049;-62
2021/12/27 04:42:34;;;;;;;8.27;3.50;;;;;;;-8.82;100.00;99591.34;5010552;28;20383;-65
2021/12/27 04:45:18;;;;;;;8.15;3.63;;;;;;;-8.86;100.00;99587.72;5025847;28;20184;-60
2021/12/27 04:48:03;;;;;;;11.05;4.80;;;;;;;-8.87;100.00;99590.22;5024055;28;20132;-64
2021/12/27 04:50:49;;;;;;;7.68;3.38;;;;;;;-8.94;100.00;99575.28;5011025;28;20052;-64
2021/12/27 04:53:34;;;;;;;;;;;;;;;-8.70;100.00;99591.97;5010896;28;20140;-63
2021/12/27 04:56:18;;;;;;;16.02;5.63;;;;;;;-8.81;100.00;99588.84;5012631;28;20015;-64
2021/12/27 04:59:03;;;;;;;14.65;5.30;;;;;;;-8.85;100.00;99607.47;4996457;28;20532;-61
2021/12/27 05:01:48;;;;;;;12.57;5.00;;;;;;;-8.89;100.00;99607.22;5023734;28;20087;-65
2021/12/27 05:04:35;;;;;;;9.65;3.55;;;;;;;-8.77;100.00;99613.88;5023939;28;20468;-62
2021/12/27 05:07:20;;;;;;;7.60;3.80;;;;;;;-8.69;100.00;99604.00;4992321;28;20053;-65
2021/12/27 05:10:07;;;;;;;10.57;4.70;;;;;;;-8.63;100.00;99617.19;5024954;28;20144;-61
2021/12/27 05:12:56;;;;;;;5.88;2.80;;;;;;;-8.51;100.00;99617.81;5008416;28;20099;-60
2021/12/27 05:15:42;;;;;;;13.40;4.55;;;;;;;-8.53;100.00;99622.88;5007173;28;20064;-64
2021/12/27 05:18:27;;;;;;;9.50;4.03;;;;;;;-8.52;100.00;99634.00;5004018;28;20527;-63
2021/12/27 05:21:11;;;;;;;9.90;4.18;;;;;;;-8.70;100.00;99635.63;4992826;28;20095;-65
2021/12/27 05:23:56;;;;;;;;;;;;;;;-8.68;100.00;99645.19;4994971;28;20140;-58
2021/12/27 05:26:41;;;;;;;5.07;2.80;;;;;;;-8.66;100.00;99651.31;5005171;28;20833;-68
2021/12/27 05:29:26;;;;;;;8.00;3.67;;;;;;;-8.81;100.00;99667.56;5004464;28;20429;-60
2021/12/27 05:32:10;;;;;;;8.95;3.53;;;;;;;-8.82;100.00;99651.31;5025297;28;20068;-67
2021/12/27 05:34:55;;;;;;;;;;;;;;;-8.60;100.00;99661.00;5025315;28;20147;-66
2021/12/27 05:37:40;;;;;;;4.97;2.70;;;;;;;-8.67;100.00;99653.78;4996238;28;19955;-61
2021/12/27 05:40:25;;;;;;;5.60;3.17;;;;;;;-8.77;100.00;99654.97;5022548;28;20052;-63
2021/12/27 05:43:10;;;;;;;;;;;;;;;-8.74;100.00;99661.97;5010920;28;20421;-61
2021/12/27 05:45:54;;;;;;;9.57;4.22;;;;;;;-8.82;100.00;99666.72;5021700;28;20031;-68
2021/12/27 05:48:39;;;;;;;7.53;3.90;;;;;;;-8.88;100.00;99662.91;5025208;28;20506;-62
2021/12/27 05:51:24;;;;;;;;;;;;;;;-8.78;100.00;99681.47;5007821;28;20210;-61
2021/12/27 05:54:12;;;;;;;10.63;4.45;;;;;;;-8.83;100.00;99675.19;5023649;28;20411;-66
2021/12/27 05:56:57;;;;;;;11.63;5.15;;;;;;;-9.01;100.00;99686.16;5025896;28;21855;-61
2021/12/27 05:59:41;;;;;;;8.55;4.45;;;;;;;-9.08;100.00;99694.31;5003561;28;20123;-70
2021/12/27 06:02:26;;;;;;;;;;;;;;;-9.01;100.00;99681.91;4976711;28;20136;-69
2021/12/27 06:05:13;;;;;;;8.37;3.40;;;;;;;-9.11;100.00;99684.78;5005586;28;19932;-69
2021/12/27 06:07:58;;;;;;;10.15;3.40;;;;;;;-9.02;100.00;99686.97;4993935;28;20656;-67
2021/12/27 06:10:44;;;;;;;6.35;3.40;;;;;;;-9.00;100.00;99691.38;5000491;28;20103;-67
2021/12/27 06:13:29;;;;;;;9.70;3.83;;;;;;;-9.03;100.00;99691.22;5006137;28;20421;-65
2021/12/27 06:16:15;;;;;;;11.27;4.45;;;;;;;-9.07;100.00;99708.94;4991929;28;20056;-69
2021/12/27 06:18:59;;;;;;;;;;;;;;;-8.94;100.00;99724.22;5006166;28;20092;-68
2021/12/27 06:21:44;;;;;;;6.88;3.92;;;;;;;-9.02;100.00;99728.91;5007605;28;20309;-66
2021/12/27 06:24:28;;;;;;;10.93;4.22;;;;;;;-9.10;100.00;99719.03;4980562;28;20568;-66
2021/12/27 06:27:14;;;;;;;7.63;3.80;;;;;;;-9.17;100.00;99727.19;4989309;28;20172;-70
2021/12/27 06:30:02;;;;;;;10.82;4.45;;;;;;;-9.16;100.00;99723.81;5009893;28;20108;-65
2021/12/27 06:32:49;;;;;;;10.15;5.00;;;;;;;-9.18;100.00;99717.75;4990892;28;20068;-63
2021/12/27 06:35:33;;;;;;;;;;;;;;;-9.03;100.00;99734.84;4994098;28;20137;-61
2021/12/27 06:38:19;;;;;;;10.40;4.93;;;;;;;-9.11;100.00;99725.84;5003298;28;19983;-65
2021/12/27 06:41:07;;;;;;;10.77;5.28;;;;;;;-9.16;100.00;99729.84;5004520;28;20045;-64
2021/12/27 06:43:53;;;;;;;8.90;4.13;;;;;;;-9.14;100.00;99737.66;4998744;28;20088;-64
2021/12/27 06:46:38;;;;;;;10.27;4.47;;;;;;;-9.16;100.00;99737.56;4998578;28;20060;-68
2021/12/27 06:49:23;;;;;;;;;;;;;;;-9.01;100.00;99750.34;5006054;28;20060;-64
2021/12/27 06:52:11;;;;;;;11.13;4.63;;;;;;;-9.13;100.00;99757.38;5002683;28;19923;-61
2021/12/27 06:54:56;;;;;;;10.80;4.18;;;;;;;-9.14;100.00;99753.91;5006000;28;20065;-63
2021/12/27 06:57:41;;;;;;;10.77;4.78;;;;;;;-9.08;100.00;99745.66;5003995;28;20100;-64
2021/12/27 07:00:26;;;;;;;9.85;4.63;;;;;;;-9.06;100.00;99751.78;4996422;28;20772;-63
2021/12/27 07:03:11;;;;;;;8.50;4.00;;;;;;;-8.99;100.00;99764.19;5026676;28;20139;-63
2021/12/27 07:05:56;;;;;;;9.98;4.05;;;;;;;-9.09;100.00;99760.22;5010797;28;20068;-59
2021/12/27 07:08:42;;;;;;;7.88;4.40;;;;;;;-9.06;100.00;99762.91;4998761;28;20052;-60
2021/12/27 07:11:28;;;;;;;9.75;4.50;;;;;;;-9.16;100.00;99770.94;4999487;28;20484;-71
2021/12/27 07:14:12;;;;;;;11.57;4.63;;;;;;;-9.04;100.00;99768.16;5025524;28;20056;-62
2021/12/27 07:16:57;;;;;;;8.15;3.60;;;;;;;-9.07;100.00;99768.88;5025397;28;20056;-63
2021/12/27 07:19:42;;;;;;;6.55;3.75;;;;;;;-9.04;100.00;99769.03;5026571;28;20047;-64
2021/12/27 07:22:27;;;;;;;8.75;3.90;;;;;;;-9.12;100.00;99766.84;4997600;28;20049;-62
2021/12/27 07:25:12;;;;;;;6.55;3.45;;;;;;;-9.08;100.00;99767.09;5009885;28;20540;-60
2021/12/27 07:27:56;;;;;;;;;;;;;;;-9.04;100.00;99789.59;4997199;28;20104;-55
2021/12/27 07:30:42;;;;;;;8.95;4.07;;;;;;;-9.12;100.00;99779.66;5024191;28;19923;-61
2021/12/27 07:33:27;;;;;;;8.15;4.30;;;;;;;-9.05;100.00;99802.34;4996894;28;20522;-62
2021/12/27 07:36:13;;;;;;;12.82;5.50;;;;;;;-9.02;100.00;99790.53;4995106;28;20574;-62
2021/12/27 07:39:00;;;;;;;12.88;5.88;;;;;;;-9.01;100.00;99799.13;5023617;28;20076;-65
2021/12/27 07:41:45;;;;;;;9.02;5.10;;;;;;;-9.03;100.00;99804.19;5012481;28;20484;-60
2021/12/27 07:44:32;;;;;;;12.07;4.70;;;;;;;-8.91;100.00;99812.56;5006873;28;20072;-61
2021/12/27 07:47:16;;;;;;;;;;;;;;;-8.67;100.00;99805.38;5027165;28;20060;-61
2021/12/27 07:50:04;;;;;;;11.13;4.65;;;;;;;-8.90;100.00;99816.94;5008409;28;20400;-68
2021/12/27 07:52:50;;;;;;;9.82;4.72;;;;;;;-9.07;100.00;99814.22;5009969;28;20052;-59
2021/12/27 07:55:36;;;;;;;8.57;4.20;;;;;;;-9.02;100.00;99831.63;5010650;28;20140;-64
2021/12/27 07:58:20;;;;;;;8.60;4.05;;;;;;;-8.92;100.00;99825.31;5023369;28;20810;-69
2021/12/27 08:01:05;;;;;;;8.20;4.45;;;;;;;-8.93;100.00;99839.88;5009748;28;20727;-64
2021/12/27 08:03:52;;;;;;;8.13;4.10;;;;;;;-9.00;100.00;99841.97;4991348;28;20415;-64
2021/12/27 08:06:38;;;;;;;9.40;4.55;;;;;;;-9.00;100.00;99847.13;4997344;28;20095;-64
2021/12/27 08:09:26;;;;;;;7.60;3.53;;;;;;;-8.98;100.00;99840.41;4980983;28;20056;-65
2021/12/27 08:12:12;;;;;;;7.82;4.20;;;;;;;-8.93;100.00;99864.66;5007524;28;20091;-67
2021/12/27 08:14:57;;;;;;;11.80;4.22;;;;;;;-9.05;100.00;99843.41;5007763;28;20057;-73
2021/12/27 08:17:43;;;;;;;11.43;4.57;;;;;;;-8.88;100.00;99851.28;5009018;28;20536;-61
2021/12/27 08:20:28;;;;;;;9.85;4.05;;;;;;;-8.98;100.00;99831.00;5011061;28;20061;-65
2021/12/27 08:23:15;;;;;;;8.60;4.13;;;;;;;-8.80;100.00;99879.94;5014971;28;20102;-66
2021/12/27 08:26:00;;;;;;;7.40;3.63;;;;;;;-8.90;100.00;99829.78;4995100;28;20108;-68
2021/12/27 08:28:51;;;;;;;9.40;4.15;;;;;;;-8.94;100.00;99857.75;5019240;28;20111;-70
2021/12/27 08:31:36;;;;;;;9.55;4.00;;;;;;;-8.84;100.00;99860.03;4983683;28;20048;-65
2021/12/27 08:34:21;;;;;;;7.65;4.25;;;;;;;-8.82;100.00;99858.44;4998336;28;20099;-65
2021/12/27 08:37:08;;;;;;;12.35;4.88;;;;;;;-8.27;100.00;99859.00;5010559;28;20056;-67
2021/12/27 08:39:53;;;;;;;8.85;4.25;;;;;;;-6.93;100.00;99859.19;4982765;28;20440;-68
2021/12/27 08:42:37;;;;;;;7.90;3.50;;;;;;;-6.20;100.00;99861.94;5023098;28;20056;-65
2021/12/27 08:45:22;;;;;;;8.82;3.65;;;;;;;-5.92;100.00;99857.22;5007723;28;20591;-63
2021/12/27 08:48:08;;;;;;;7.60;3.92;;;;;;;-5.38;100.00;99869.97;5010967;28;20056;-64
2021/12/27 08:50:53;;;;;;;6.72;3.20;;;;;;;-4.76;100.00;99864.88;5022405;28;20881;-63
2021/12/27 08:53:39;;;;;;;6.80;3.53;;;;;;;-4.52;100.00;99859.84;5009198;28;20190;-62
2021/12/27 08:56:25;;;;;;;8.45;4.00;;;;;;;-3.61;100.00;99872.91;5008432;28;20562;-64
2021/12/27 08:59:10;;;;;;;7.95;4.13;;;;;;;-3.26;100.00;99864.69;5005729;28;20056;-68
2021/12/27 09:01:55;;;;;;;7.95;4.13;;;;;;;-3.21;100.00;99865.75;5004512;28;20057;-67
2021/12/27 09:04:45;;;;;;;9.18;4.55;;;;;;;-2.67;100.00;99867.63;5002726;28;20049;-67
2021/12/27 09:07:32;;;;;;;7.65;3.97;;;;;;;-2.03;100.00;99863.66;5003484;28;20057;-66
2021/12/27 09:10:17;;;;;;;9.07;4.40;;;;;;;-0.60;96.33;99861.69;4976108;28;20049;-65
2021/12/27 09:13:03;;;;;;;8.52;4.25;;;;;;;-0.12;89.98;99862.00;4959964;28;20049;-67
2021/12/27 09:15:49;;;;;;;11.60;4.70;;;;;;;0.11;79.60;99873.84;4990774;28;20052;-68
2021/12/27 09:18:35;;;;;;;8.32;4.18;;;;;;;0.22;75.81;99871.47;4971895;28;20088;-64
2021/12/27 09:21:20;;;;;;;6.57;4.13;;;;;;;0.84;70.35;99868.47;4975976;28;20464;-65
2021/12/27 09:24:05;;;;;;;6.90;4.13;;;;;;;-0.14;70.25;99871.53;4990237;28;20056;-65
2021/12/27 09:26:50;;;;;;;6.38;4.18;;;;;;;0.27;70.16;99877.69;4976978;28;20138;-65
2021/12/27 09:29:35;;;;;;;7.70;4.55;;;;;;;2.10;66.50;99881.19;4963976;28;20053;-64
2021/12/27 09:32:20;;;;;;;6.22;3.92;;;;;;;2.96;58.05;99873.63;4984497;28;20053;-64
2021/12/27 09:35:07;;;;;;;9.07;3.95;;;;;;;1.55;52.58;99889.88;4990360;28;20104;-65
2021/12/27 09:37:52;;;;;;;6.80;3.90;;;;;;;0.26;63.02;99868.97;5001669;28;20057;-65
2021/12/27 09:40:36;;;;;;;6.88;4.05;;;;;;;1.63;61.83;99872.56;4995364;28;20581;-68
2021/12/27 09:43:21;;;;;;;6.60;4.47;;;;;;;1.50;53.22;99890.63;4997914;28;20449;-65
2021/12/27 09:46:06;;;;;;;6.65;4.25;;;;;;;1.62;58.61;99889.09;5008871;28;20114;-62
2021/12/27 09:48:55;;;;;;;11.48;5.05;;;;;;;1.63;58.87;99898.72;4994698;28;20088;-63
2021/12/27 09:51:40;;;;;;;7.28;4.68;;;;;;;1.54;58.06;99893.31;4992761;28;20048;-66
2021/12/27 09:54:27;;;;;;;9.20;4.65;;;;;;;2.08;55.35;99891.59;4993567;28;20120;-64
2021/12/27 09:57:11;;;;;;;9.23;4.90;;;;;;;3.11;52.61;99893.88;4996870;28;20056;-59
2021/12/27 09:59:56;;;;;;;7.25;4.88;;;;;;;3.06;48.38;99898.19;5006978;28;20057;-65
2021/12/27 10:02:42;;;;;;;8.93;5.20;;;;;;;2.83;51.63;99892.69;5025318;28;20052;-69
2021/12/27 10:05:29;;;;;;;6.95;4.60;;;;;;;2.39;47.42;99906.91;5019708;28;20436;-70
2021/12/27 10:08:18;;;;;;;6.20;4.35;;;;;;;2.50;46.65;99893.97;5029082;28;20145;-66
2021/12/27 10:11:04;;;;;;;7.05;4.57;;;;;;;2.77;44.92;99902.19;5025673;28;20528;-65
2021/12/27 10:14:05;;;;;;;6.50;4.25;;;;;;;2.87;47.55;99898.81;5003585;28;20056;-63
2021/12/27 10:17:06;;;;;;;7.25;4.22;;;;;;;1.76;47.59;99918.97;5003276;28;20091;-63
2021/12/27 10:19:55;;;;;;;6.72;3.72;;;;;;;2.15;50.94;99910.88;4989257;28;20466;-63
2021/12/27 10:22:50;;;;;;;7.10;4.22;;;;;;;1.74;49.93;99906.72;5007201;28;20048;-65
2021/12/27 10:25:37;;;;;;;8.98;4.45;;;;;;;2.39;50.32;99906.91;5008196;28;20092;-67
2021/12/27 10:28:26;;;;;;;6.88;3.70;;;;;;;3.50;48.23;99903.06;4979998;28;20052;-64
2021/12/27 10:31:12;;;;;;;6.50;3.63;;;;;;;4.34;43.30;99906.41;4988486;28;20530;-66
2021/12/27 10:34:04;;;;;;;6.40;3.72;;;;;;;3.67;41.01;99908.44;5005055;28;20137;-67
2021/12/27 10:37:04;;;;;;;6.43;3.95;;;;;;;3.70;43.01;99908.47;5009065;28;20116;-65
2021/12/27 10:39:54;;;;;;;6.72;4.32;;;;;;;3.57;43.13;99911.84;5005378;28;20415;-66
2021/12/27 10:42:45;;;;;;;6.78;3.95;;;;;;;3.15;41.84;99914.88;4987103;28;20069;-68
2021/12/27 10:45:33;;;;;;;5.35;3.75;;;;;;;3.03;44.70;99917.38;4988115;28;20537;-67
2021/12/27 10:48:22;;;;;;;5.80;3.72;;;;;;;3.21;44.70;99914.09;4986417;28;20056;-69
2021/12/27 10:51:08;;;;;;;6.20;3.70;;;;;;;2.24;44.76;99938.06;4999120;28;20079;-69
2021/12/27 10:54:01;;;;;;;9.32;4.40;;;;;;;2.50;47.51;99934.06;4994671;28;20302;-63
2021/12/27 10:56:53;;;;;;;7.55;4.57;;;;;;;2.73;46.43;99923.97;5020039;28;20217;-66
2021/12/27 10:59:38;;;;;;;7.65;4.88;;;;;;;2.18;45.35;99929.25;5011116;28;20101;-63
2021/12/27 11:02:33;;;;;;;7.63;4.85;;;;;;;2.40;47.25;99929.59;5006810;28;20129;-64
2021/12/27 11:05:26;;;;;;;6.22;4.47;;;;;;;2.62;48.23;99939.53;4992712;28;20544;-71
2021/12/27 11:08:13;;;;;;;7.15;4.10;;;;;;;2.07;46.16;99923.84;4993452;28;20053;-65
2021/12/27 11:11:00;;;;;;;7.18;4.55;;;;;;;0.85;52.12;99933.75;4993350;28;20081;-64
2021/12/27 11:13:53;;;;;;;6.82;4.28;;;;;;;0.27;57.11;99922.88;5005981;28;20454;-63
2021/12/27 11:16:38;;;;;;;7.35;4.00;;;;;;;-0.25;58.69;99925.09;5003173;28;20172;-62
2021/12/27 11:19:26;;;;;;;8.02;3.88;;;;;;;-0.83;61.79;99925.28;4987823;28;20049;-64
2021/12/27 11:22:13;;;;;;;7.78;4.20;;;;;;;-0.84;66.46;99926.13;4960325;28;20152;-65
2021/12/27 11:25:03;;;;;;;6.75;3.90;;;;;;;-0.26;65.70;99926.81;4959874;28;20058;-69
2021/12/27 11:27:49;;;;;;;8.80;4.32;;;;;;;-0.18;64.98;99921.78;4959344;28;20073;-70
2021/12/27 11:30:35;;;;;;;7.60;3.70;;;;;;;-0.64;63.98;99922.34;5007511;28;20092;-66
2021/12/27 11:33:22;;;;;;;7.57;4.35;;;;;;;-0.62;68.10;99927.59;4992069;28;20092;-67
2021/12/27 11:36:09;;;;;;;6.95;3.45;;;;;;;-0.46;67.39;99927.16;5006688;28;20052;-64
2021/12/27 11:38:54;;;;;;;7.78;4.47;;;;;;;-0.22;65.95;99931.28;5012561;28;20044;-64
2021/12/27 11:41:40;;;;;;;6.72;4.28;;;;;;;-1.53;69.57;99926.75;5012255;28;20089;-65
2021/12/27 11:44:35;;;;;;;8.90;4.43;;;;;;;-1.77;74.47;99927.69;5026292;28;20052;-66
2021/12/27 11:47:26;;;;;;;9.33;4.37;;;;;;;-2.10;76.23;99932.72;5011793;28;20569;-67
2021/12/27 11:50:14;;;;;;;8.05;4.43;;;;;;;-2.61;78.31;99930.13;4989522;28;20048;-64
2021/12/27 11:53:06;;;;;;;8.85;5.18;;;;;;;-3.44;83.71;99926.22;5006190;28;20053;-70
2021/12/27 11:55:51;;;;;;;8.73;4.65;;;;;;;-4.10;88.19;99929.69;4986021;28;20053;-65
2021/12/27 11:58:42;;;;;;;7.93;4.82;;;;;;;-4.18;92.60;99927.63;4994613;28;20154;-65
2021/12/27 12:01:27;;;;;;;7.95;4.53;;;;;;;-4.46;95.65;99943.75;5006532;28;20591;-65
2021/12/27 12:04:38;;;;;;;10.82;4.75;;;;;;;-4.86;99.28;99943.75;4989560;28;20449;-65
2021/12/27 12:07:36;;;;;;;9.68;4.70;;;;;;;-5.19;100.00;99943.97;5005211;28;20091;-67
2021/12/27 12:10:21;;;;;;;12.07;5.78;;;;;;;-5.75;100.00;99936.28;4992262;28;20080;-66
2021/12/27 12:13:39;;;;;;;10.38;4.82;;;;;;;-5.64;100.00;99949.69;4993540;28;20063;-65
2021/12/27 12:16:49;;;;;;;10.80;5.38;;;;;;;-5.32;100.00;99959.78;4996916;28;20095;-66
2021/12/27 12:19:48;;;;;;;10.68;5.13;;;;;;;-5.20;100.00;99947.38;4992665;28;20088;-65
2021/12/27 12:22:39;;;;;;;13.43;5.78;;;;;;;-4.78;100.00;99952.72;5004766;28;20426;-67
2021/12/27 12:25:24;;;;;;;13.38;6.00;;;;;;;-5.07;100.00;99939.34;4997526;28;20061;-66
2021/12/27 12:28:12;;;;;;;16.48;6.63;;;;;;;-5.35;100.00;99924.34;4997485;28;20044;-68
2021/12/27 12:30:57;;;;;;;15.85;6.38;;;;;;;-5.74;100.00;99945.78;4990329;28;20482;-67
2021/12/27 12:33:42;;;;;;;17.42;7.18;;;;;;;-5.61;100.00;99953.28;4999326;28;20048;-66
2021/12/27 12:36:28;;;;;;;16.08;7.30;;;;;;;-5.56;100.00;99956.06;5004948;28;20104;-65
2021/12/27 12:39:17;;;;;;;16.25;7.25;;;;;;;-5.64;100.00;99960.91;4996645;28;20060;-67
2021/12/27 12:42:09;;;;;;;16.95;6.20;;;;;;;-5.58;100.00;99955.13;4967073;28;20526;-66
2021/12/27 12:45:05;;;;;;;13.55;5.72;;;;;;;-5.79;100.00;99970.50;4990120;28;20083;-65
2021/12/27 12:48:02;;;;;;;16.67;6.18;;;;;;;-5.86;100.00;99965.91;5007522;28;20099;-68
2021/12/27 12:50:58;;;;;;;13.27;6.28;;;;;;;-5.98;100.00;99967.00;4991191;28;20044;-66
2021/12/27 12:53:44;;;;;;;14.23;6.20;;;;;;;-5.94;100.00;99966.34;5006333;28;20191;-67
2021/12/27 12:56:31;;;;;;;13.50;6.03;;;;;;;-5.84;100.00;99947.91;4997936;28;20057;-70
2021/12/27 13:03:45;;;;;;;13.13;5.22;;;;;;;-5.95;100.00;99969.75;5019768;28;20068;-66
2021/12/27 13:06:45;;;;;;;10.63;4.90;;;;;;;-6.25;100.00;99973.44;5011595;28;20048;-65
2021/12/27 13:09:45;;;;;;;9.57;4.32;;;;;;;-6.33;100.00;99977.34;5010147;28;20115;-64